Terminal Aerodrome Forecast
Issued by NWS Wilmington, OH

Current Version | Previous Version | Text Only | Print | Product List | Glossary Off
Versions: 1 2 3 4 5 6 7 8 9 10 11 12 13 14 15 16

000
FTUS41 KILN 290200 AAA
TAFILN
TAF AMD
KILN 290231Z 2903/2924 25010KT P6SM VCSH BKN100 OVC200
     FM290600 25007KT P6SM SCT100 BKN200
     FM291200 27006KT P6SM SCT200
     FM291400 26011KT P6SM SCT035
     FM291800 26012G22KT P6SM BKN040=

USA.gov is the U.S. government's official web portal to all federal, state and local government web resources and services.